createdAt,value
2022-12-08T01:49:35.474Z,23.00
2022-12-08T02:07:10.394Z,20.80
2022-12-08T02:09:41.961Z,22.70
2022-12-08T02:12:11.741Z,20.80
2022-12-08T02:17:33.809Z,22.00
2022-12-08T02:20:23.179Z,22.30
2022-12-08T02:23:11.633Z,22.30
2022-12-08T02:26:37.282Z,25.20
2022-12-08T02:30:02.348Z,16.80
2022-12-08T02:32:49.293Z,17.60
2022-12-08T02:35:49.911Z,15.40
2022-12-08T02:38:55.765Z,16.20
2022-12-08T02:41:32.135Z,15.00
2022-12-08T02:44:30.134Z,15.70
2022-12-08T02:47:16.505Z,15.50
2022-12-08T02:49:45.561Z,15.50
2022-12-08T02:52:14.029Z,17.10
2022-12-08T02:54:49.619Z,16.90
2022-12-08T02:57:56.957Z,19.30
2022-12-08T03:00:30.085Z,17.70
2022-12-08T03:03:38.422Z,19.60
2022-12-08T03:06:25.129Z,18.70
2022-12-08T03:09:12.903Z,16.90
2022-12-08T03:12:18.001Z,15.20
2022-12-08T03:14:53.477Z,17.40
2022-12-08T03:17:26.669Z,18.20
2022-12-08T03:19:57.467Z,14.70
2022-12-08T03:22:29.464Z,13.50
2022-12-08T03:24:58.641Z,12.30
2022-12-08T03:27:30.425Z,13.40
2022-12-08T03:30:00.799Z,13.40
2022-12-08T03:32:48.777Z,11.40
2022-12-08T03:35:24.302Z,13.70
2022-12-08T03:37:52.888Z,16.60
2022-12-08T03:40:21.469Z,16.10
2022-12-08T03:42:50.185Z,20.60
2022-12-08T03:45:18.836Z,15.60
2022-12-08T03:47:47.420Z,14.50
2022-12-08T03:50:16.515Z,16.20
2022-12-08T03:52:45.197Z,14.30
2022-12-08T03:55:13.919Z,14.00
2022-12-08T03:57:43.095Z,13.40
2022-12-08T04:00:16.098Z,12.40
2022-12-08T04:02:44.727Z,15.70
2022-12-08T04:05:13.445Z,13.30
2022-12-08T04:07:42.154Z,15.60
2022-12-08T04:10:11.524Z,17.20
2022-12-08T04:12:40.110Z,17.20
2022-12-08T04:15:10.233Z,16.30
2022-12-08T04:17:38.941Z,16.70
2022-12-08T04:20:08.075Z,16.40
2022-12-08T04:22:36.798Z,14.50
2022-12-08T04:25:06.437Z,15.40
2022-12-08T04:27:35.096Z,14.30
2022-12-08T04:30:04.300Z,14.60
2022-12-08T04:32:32.975Z,15.40
2022-12-08T04:35:01.313Z,16.40
2022-12-08T04:37:30.037Z,13.80
2022-12-08T04:39:58.377Z,14.80
2022-12-08T04:42:27.001Z,13.90
2022-12-08T04:44:55.684Z,13.40
2022-12-08T04:47:24.219Z,11.60
2022-12-08T04:49:52.702Z,10.70
2022-12-08T04:52:21.204Z,11.60
2022-12-08T04:54:50.126Z,12.80
2022-12-08T04:57:18.704Z,10.90
2022-12-08T04:59:47.157Z,13.40
2022-12-08T05:02:15.981Z,11.80
2022-12-08T05:04:44.490Z,12.80
2022-12-08T05:07:13.242Z,11.80
2022-12-08T05:09:41.930Z,12.80
2022-12-08T05:12:10.911Z,11.90
2022-12-08T05:14:39.605Z,12.00
2022-12-08T05:17:09.802Z,11.30
2022-12-08T05:19:38.644Z,10.70
2022-12-08T05:22:07.401Z,14.20
2022-12-08T05:24:36.029Z,11.60
2022-12-08T05:27:04.536Z,10.80
2022-12-08T05:29:32.983Z,14.60
2022-12-08T05:32:01.634Z,11.10
2022-12-08T05:34:30.380Z,12.30
2022-12-08T05:36:58.982Z,10.20
2022-12-08T05:39:27.574Z,11.10
2022-12-08T05:41:55.998Z,11.70
2022-12-08T05:44:24.531Z,12.60
2022-12-08T05:46:53.218Z,16.30
2022-12-08T05:49:21.666Z,15.30
2022-12-08T05:51:50.275Z,20.90
2022-12-08T05:54:18.871Z,20.90
2022-12-08T05:56:47.501Z,13.90
2022-12-08T05:59:16.929Z,12.90
2022-12-08T06:01:45.486Z,12.80
2022-12-08T06:04:14.036Z,11.30
2022-12-08T06:06:42.762Z,11.50
2022-12-08T06:09:12.683Z,12.80
2022-12-08T06:11:41.239Z,12.40
2022-12-08T06:14:12.837Z,14.10
2022-12-08T06:16:41.487Z,12.20
2022-12-08T06:19:10.250Z,12.30
2022-12-08T06:21:38.747Z,13.70
2022-12-08T06:24:07.646Z,12.60
2022-12-08T06:26:36.476Z,15.10
2022-12-08T06:29:05.341Z,13.20
2022-12-08T06:31:33.894Z,14.90
2022-12-08T06:34:02.795Z,11.70
2022-12-08T06:36:31.285Z,10.60
2022-12-08T06:39:00.141Z,11.70
2022-12-08T06:41:28.979Z,14.00
2022-12-08T06:43:57.925Z,14.90
2022-12-08T06:46:26.577Z,13.00
2022-12-08T06:48:55.216Z,13.70
2022-12-08T06:51:23.939Z,13.20
2022-12-08T06:53:52.369Z,11.90
2022-12-08T06:56:22.613Z,11.20
2022-12-08T06:58:52.999Z,12.70
2022-12-08T07:01:22.365Z,12.20
2022-12-08T07:03:52.454Z,14.20
2022-12-08T07:06:24.498Z,13.10
2022-12-08T07:08:53.183Z,19.10
2022-12-08T07:11:22.693Z,14.50
2022-12-08T07:16:19.962Z,14.00
2022-12-08T07:18:48.499Z,13.00
2022-12-08T07:21:18.496Z,14.80
2022-12-08T07:23:54.343Z,14.70
2022-12-08T07:26:27.164Z,14.70
2022-12-08T07:28:55.942Z,13.20
2022-12-08T07:31:26.022Z,19.80
2022-12-08T07:33:57.086Z,15.90
2022-12-08T07:36:26.314Z,13.00
2022-12-08T07:38:55.076Z,18.40
2022-12-08T07:41:26.212Z,19.40
2022-12-08T07:43:55.861Z,16.20
2022-12-08T07:48:55.756Z,16.40
2022-12-08T07:51:25.443Z,15.90
2022-12-08T07:53:55.129Z,17.70
2022-12-08T07:56:24.771Z,18.70
2022-12-08T07:58:53.745Z,19.30
2022-12-08T08:01:30.132Z,25.20
2022-12-08T08:04:04.875Z,23.90
2022-12-08T08:06:35.417Z,19.20
2022-12-08T08:09:04.740Z,17.20
2022-12-08T08:11:33.356Z,16.80
2022-12-08T08:14:02.092Z,16.50
2022-12-08T08:16:36.567Z,16.00
2022-12-08T08:19:06.768Z,23.70
2022-12-08T08:21:50.736Z,19.00
2022-12-08T08:24:20.532Z,19.10
2022-12-08T08:29:17.549Z,19.60
2022-12-08T08:31:46.126Z,18.60
2022-12-08T08:34:14.606Z,16.80
2022-12-08T08:36:43.275Z,16.30
2022-12-08T08:39:13.169Z,18.30
2022-12-08T08:41:45.198Z,21.70
2022-12-08T08:44:15.766Z,20.90
2022-12-08T08:46:44.462Z,29.00
2022-12-08T08:49:13.295Z,19.80
2022-12-08T08:51:42.631Z,20.60
2022-12-08T08:54:11.597Z,18.10
2022-12-08T08:56:40.437Z,22.40
2022-12-08T08:59:11.087Z,18.60
2022-12-08T09:01:39.952Z,20.50
2022-12-08T09:04:10.579Z,19.80
2022-12-08T09:06:39.458Z,20.80
2022-12-08T09:09:08.208Z,22.00
2022-12-08T09:11:37.146Z,25.60
2022-12-08T09:14:06.710Z,29.10
2022-12-08T09:16:41.783Z,18.30
2022-12-08T09:19:11.031Z,21.60
2022-12-08T09:21:39.830Z,20.90
2022-12-08T09:24:16.037Z,22.20
2022-12-08T09:26:46.040Z,23.80
2022-12-08T09:29:15.631Z,31.90
2022-12-08T09:31:44.358Z,26.40
2022-12-08T09:34:13.110Z,29.20
2022-12-08T09:36:42.152Z,24.40
2022-12-08T09:39:10.636Z,25.30
2022-12-08T09:42:10.076Z,23.10
2022-12-08T09:45:14.751Z,23.60
2022-12-08T09:47:59.715Z,24.00
2022-12-08T09:50:39.342Z,25.90
2022-12-08T09:53:19.062Z,29.70
2022-12-08T09:55:54.108Z,23.40
2022-12-08T09:58:40.282Z,20.90
2022-12-08T10:01:12.775Z,24.90
2022-12-08T10:03:43.048Z,24.50
2022-12-08T10:06:36.236Z,23.60
2022-12-08T10:09:31.359Z,28.10
2022-12-08T10:12:08.353Z,24.70
2022-12-08T10:14:58.877Z,26.90
2022-12-08T10:17:34.787Z,35.20
2022-12-08T10:20:10.044Z,24.60
2022-12-08T10:22:44.491Z,21.70
2022-12-08T10:25:33.462Z,20.90
2022-12-08T10:28:02.278Z,21.50
2022-12-08T10:30:32.034Z,22.50
2022-12-08T10:33:00.882Z,32.40
2022-12-08T10:35:59.080Z,22.30
2022-12-08T10:38:34.368Z,22.60
2022-12-08T10:41:14.175Z,23.90
2022-12-08T10:43:55.162Z,27.40
2022-12-08T10:46:26.514Z,28.00
2022-12-08T10:49:27.002Z,31.50
2022-12-08T10:52:00.009Z,27.00
2022-12-08T10:54:36.816Z,28.30
2022-12-08T10:57:23.862Z,27.30
2022-12-08T10:59:56.525Z,25.60
2022-12-08T11:02:25.278Z,26.50
2022-12-08T11:05:01.856Z,25.10
2022-12-08T11:07:30.786Z,28.00
2022-12-08T11:10:00.362Z,27.60
2022-12-08T11:12:31.785Z,30.90
2022-12-08T11:15:03.618Z,27.60
2022-12-08T11:17:44.479Z,23.20
2022-12-08T11:20:23.380Z,28.90
2022-12-08T11:22:59.070Z,29.40
2022-12-08T11:25:28.918Z,24.90
2022-12-08T11:28:01.008Z,32.30
2022-12-08T11:30:51.355Z,27.90
2022-12-08T11:33:27.074Z,27.60
2022-12-08T11:36:16.210Z,32.60
2022-12-08T11:38:49.806Z,30.50
2022-12-08T11:41:24.441Z,32.40
2022-12-08T11:44:29.480Z,28.60
2022-12-08T11:48:08.941Z,31.00
2022-12-08T11:51:30.233Z,33.80
2022-12-08T11:54:23.828Z,37.60
2022-12-08T11:56:57.908Z,34.30
2022-12-08T11:59:39.763Z,28.60
2022-12-08T12:02:17.733Z,27.50
2022-12-08T12:05:11.435Z,35.10
2022-12-08T12:08:52.632Z,27.40
2022-12-08T12:12:01.741Z,27.50
2022-12-08T12:14:41.906Z,24.50
2022-12-08T12:17:54.947Z,28.00
2022-12-08T12:20:38.806Z,23.90
2022-12-08T12:23:38.557Z,27.20
2022-12-08T12:26:17.488Z,25.90
2022-12-08T12:29:02.878Z,22.40
2022-12-08T12:31:42.757Z,23.20
2022-12-08T12:34:24.374Z,24.90
2022-12-08T12:36:58.485Z,27.00
2022-12-08T12:39:31.569Z,26.60
2022-12-08T12:42:03.682Z,29.60
2022-12-08T12:44:33.045Z,24.00
2022-12-08T12:47:05.129Z,26.70
2022-12-08T12:49:39.582Z,27.20
2022-12-08T12:52:10.801Z,26.10
2022-12-08T12:54:43.863Z,26.00
2022-12-08T12:57:21.509Z,27.90
2022-12-08T12:59:55.546Z,26.80
2022-12-08T13:02:36.878Z,25.50
2022-12-08T13:05:18.849Z,27.20
2022-12-08T13:08:26.669Z,25.80
2022-12-08T13:11:07.264Z,27.10
2022-12-08T13:13:38.285Z,26.70
2022-12-08T13:16:18.605Z,25.20
2022-12-08T13:18:52.789Z,26.70
2022-12-08T13:21:24.418Z,24.20
2022-12-08T13:24:10.795Z,28.80
2022-12-08T13:27:11.539Z,30.10
2022-12-08T13:29:40.782Z,32.50
2022-12-08T13:32:09.912Z,35.30
2022-12-08T13:34:51.581Z,35.00
2022-12-08T13:37:54.483Z,39.40
2022-12-08T13:40:28.038Z,36.60
2022-12-08T13:43:19.060Z,35.30
2022-12-08T13:46:52.305Z,34.20
2022-12-08T13:56:05.408Z,41.20
2022-12-08T13:57:33.992Z,43.10
2022-12-08T14:00:15.982Z,34.70
2022-12-08T14:02:50.777Z,37.20
2022-12-08T14:05:40.788Z,37.80
2022-12-08T14:12:05.320Z,38.40
2022-12-08T14:15:02.616Z,36.50
2022-12-08T14:17:33.948Z,37.40
2022-12-08T14:20:13.174Z,39.00
2022-12-08T14:22:42.157Z,37.50
2022-12-08T14:25:17.749Z,41.80
2022-12-08T14:27:48.191Z,39.00
2022-12-08T14:30:26.390Z,43.60
2022-12-08T14:32:58.925Z,41.40
2022-12-08T14:35:30.474Z,36.00
2022-12-08T14:38:03.789Z,38.40
2022-12-08T14:40:41.864Z,40.70
2022-12-08T14:43:10.352Z,42.90
2022-12-08T14:45:41.822Z,43.90
2022-12-08T14:48:33.805Z,50.60
2022-12-08T14:51:09.526Z,40.70
2022-12-08T14:54:01.740Z,39.90
2022-12-08T14:56:53.033Z,40.10
2022-12-08T14:59:40.346Z,39.10
2022-12-08T15:02:32.269Z,39.30
2022-12-08T15:05:12.186Z,34.70
2022-12-08T15:07:53.803Z,39.70
2022-12-08T15:10:32.316Z,40.70
2022-12-08T15:13:10.824Z,34.00
2022-12-08T15:15:57.392Z,33.80
2022-12-08T15:18:41.234Z,35.20
2022-12-08T15:21:13.150Z,33.20
2022-12-08T15:23:49.267Z,30.40
2022-12-08T15:26:27.297Z,36.20
2022-12-08T15:28:56.022Z,36.60
2022-12-08T15:31:24.527Z,33.10
2022-12-08T15:33:53.076Z,35.00
2022-12-08T15:36:21.506Z,33.60
2022-12-08T15:38:49.967Z,32.20
2022-12-08T15:41:18.448Z,31.90
2022-12-08T15:43:46.869Z,30.90
2022-12-08T15:46:15.440Z,29.50
2022-12-08T15:48:44.018Z,30.60
2022-12-08T15:51:12.428Z,36.00
2022-12-08T15:53:41.034Z,35.80
2022-12-08T15:58:58.916Z,33.10
2022-12-08T16:01:27.835Z,35.30
2022-12-08T16:09:44.266Z,33.50
2022-12-08T16:13:40.420Z,34.80
2022-12-08T16:18:27.068Z,33.00
2022-12-08T16:21:09.642Z,32.60
2022-12-08T16:23:45.469Z,34.00
2022-12-08T16:27:35.485Z,31.40
2022-12-08T16:29:18.334Z,31.80
2022-12-08T16:31:47.351Z,37.20
2022-12-08T16:34:16.377Z,40.90
2022-12-08T16:36:44.817Z,37.10
2022-12-08T16:39:14.118Z,46.50
2022-12-08T16:42:01.173Z,35.30
2022-12-08T16:44:29.670Z,36.20
2022-12-08T16:46:58.153Z,32.80
2022-12-08T16:49:26.604Z,34.20
2022-12-08T16:51:55.149Z,34.10
2022-12-08T16:54:23.645Z,46.50
2022-12-08T16:56:52.153Z,41.70
2022-12-08T16:59:20.652Z,53.00
2022-12-08T17:01:49.098Z,40.90
2022-12-08T17:04:32.907Z,44.90
2022-12-08T17:07:01.725Z,39.70
2022-12-08T17:09:32.208Z,48.80
2022-12-08T17:12:04.119Z,44.40
2022-12-08T17:14:35.661Z,46.80
2022-12-08T17:17:04.516Z,44.80
2022-12-08T17:19:34.147Z,46.50
2022-12-08T17:22:02.689Z,44.00
2022-12-08T17:24:31.897Z,45.50
2022-12-08T17:27:04.515Z,47.10
2022-12-08T17:29:34.692Z,46.20
2022-12-08T17:32:03.775Z,51.50
2022-12-08T17:34:32.526Z,68.10
2022-12-08T17:37:00.948Z,48.00
2022-12-08T17:39:29.442Z,52.10
2022-12-08T17:41:58.055Z,47.40
2022-12-08T17:44:27.998Z,50.90
2022-12-08T17:46:56.710Z,44.60
2022-12-08T17:49:29.840Z,41.20
2022-12-08T17:52:01.366Z,37.70
2022-12-08T17:54:30.865Z,42.90
2022-12-08T17:56:59.696Z,38.60
2022-12-08T17:59:29.000Z,46.30
2022-12-08T18:01:58.313Z,49.20
2022-12-08T18:04:28.982Z,49.50
2022-12-08T18:07:00.628Z,49.80
2022-12-08T18:09:31.810Z,43.00
2022-12-08T18:12:00.760Z,41.30
2022-12-08T18:14:29.518Z,41.80
2022-12-08T18:16:58.133Z,41.30
2022-12-08T18:19:28.035Z,42.40
2022-12-08T18:21:56.502Z,43.30
2022-12-08T18:24:25.220Z,47.30
2022-12-08T18:26:55.542Z,40.80
2022-12-08T18:29:24.742Z,35.60
2022-12-08T18:31:53.243Z,35.90
2022-12-08T18:34:21.973Z,41.50
2022-12-08T18:36:50.554Z,37.60
2022-12-08T18:39:28.852Z,37.00
2022-12-08T18:41:58.986Z,33.90
2022-12-08T18:44:27.811Z,34.50
2022-12-08T18:46:56.362Z,31.80
2022-12-08T18:49:25.215Z,31.60
2022-12-08T18:51:53.695Z,32.70
2022-12-08T18:54:31.585Z,35.80
2022-12-08T18:57:10.869Z,28.50
2022-12-08T18:59:39.385Z,30.70
2022-12-08T19:02:07.999Z,49.50
2022-12-08T19:04:38.880Z,29.90
2022-12-08T19:07:08.198Z,31.00
2022-12-08T19:09:37.190Z,25.50
2022-12-08T19:12:06.837Z,27.60
2022-12-08T19:17:04.031Z,27.50
2022-12-08T19:19:32.691Z,30.50
2022-12-08T19:22:01.301Z,34.50
2022-12-08T19:24:30.088Z,24.30
2022-12-08T19:26:58.670Z,23.60
2022-12-08T19:29:27.284Z,23.60
2022-12-08T19:31:55.939Z,26.60
2022-12-08T19:34:24.729Z,26.50
2022-12-08T19:36:53.525Z,33.30
2022-12-08T19:39:47.353Z,26.50
2022-12-08T19:42:38.162Z,27.30
2022-12-08T19:45:21.344Z,29.00
2022-12-08T19:47:49.940Z,25.70
2022-12-08T19:50:36.753Z,26.80
2022-12-08T19:53:12.559Z,27.30
2022-12-08T19:55:43.196Z,25.00
2022-12-08T19:58:11.734Z,28.50
2022-12-08T20:00:41.640Z,34.50
2022-12-08T20:03:15.734Z,23.90
2022-12-08T20:05:45.957Z,24.10
2022-12-08T20:08:15.532Z,25.00
2022-12-08T20:13:32.258Z,23.10
2022-12-08T20:16:00.901Z,23.50
2022-12-08T20:18:29.649Z,21.60
2022-12-08T20:20:58.294Z,21.50
2022-12-08T20:23:26.823Z,27.20
2022-12-08T20:25:55.279Z,23.40
2022-12-08T20:28:24.126Z,24.60
2022-12-08T20:30:52.904Z,25.30
2022-12-08T20:33:22.173Z,23.70
2022-12-08T20:36:02.093Z,20.60
2022-12-08T20:38:31.103Z,23.10
2022-12-08T20:40:59.905Z,19.80
2022-12-08T20:43:28.373Z,20.70
2022-12-08T20:45:56.954Z,19.30
2022-12-08T20:48:25.914Z,19.80
2022-12-08T20:50:55.095Z,18.30
2022-12-08T20:53:23.737Z,18.90
2022-12-08T20:55:52.721Z,20.30
2022-12-08T20:58:21.517Z,21.10
2022-12-08T21:00:50.498Z,19.00
2022-12-08T21:03:19.488Z,18.30
2022-12-08T21:05:53.217Z,18.50
2022-12-08T21:08:25.409Z,16.90
2022-12-08T21:10:57.034Z,18.80
2022-12-08T21:13:25.927Z,18.90
2022-12-08T21:15:54.932Z,19.40
2022-12-08T21:18:24.794Z,22.10
2022-12-08T21:21:04.897Z,24.30
2022-12-08T21:23:35.104Z,21.00
2022-12-08T21:26:10.473Z,26.50
2022-12-08T21:28:39.460Z,23.50
2022-12-08T21:31:13.920Z,21.50
2022-12-08T21:33:43.087Z,20.60
2022-12-08T21:36:18.686Z,19.80
2022-12-08T21:38:47.977Z,19.30
2022-12-08T21:41:38.665Z,22.00
2022-12-08T21:44:11.107Z,20.00
2022-12-08T21:46:40.132Z,21.70
2022-12-08T21:49:08.963Z,23.00
2022-12-08T21:51:38.316Z,35.10
2022-12-08T21:54:07.032Z,23.40
2022-12-08T21:56:35.845Z,22.30
2022-12-08T21:59:04.648Z,22.30
2022-12-08T22:01:33.623Z,21.60
2022-12-08T22:04:02.614Z,21.20
2022-12-08T22:06:31.306Z,22.90
2022-12-08T22:09:00.224Z,26.90
2022-12-08T22:11:28.968Z,25.20
2022-12-08T22:13:57.667Z,21.60
2022-12-08T22:16:26.346Z,21.40
2022-12-08T22:18:55.135Z,22.60
2022-12-08T22:21:23.936Z,21.50
2022-12-08T22:23:52.358Z,24.10
2022-12-08T22:26:20.834Z,21.90
2022-12-08T22:28:49.410Z,19.20
2022-12-08T22:31:23.504Z,21.80
2022-12-08T22:33:52.375Z,22.90
2022-12-08T22:36:24.595Z,23.70
2022-12-08T22:38:54.170Z,23.10
2022-12-08T22:41:23.289Z,18.90
2022-12-08T22:43:51.769Z,19.00
2022-12-08T22:46:26.578Z,20.50
2022-12-08T22:48:55.336Z,19.90
2022-12-08T22:51:24.155Z,20.60
2022-12-08T22:53:52.512Z,19.70
2022-12-08T22:56:21.028Z,20.20
2022-12-08T22:58:49.704Z,22.60
2022-12-08T23:01:27.844Z,24.50
2022-12-08T23:03:57.953Z,21.30
2022-12-08T23:06:28.589Z,22.30
2022-12-08T23:08:57.970Z,17.80
2022-12-08T23:11:31.533Z,23.10
2022-12-08T23:14:01.263Z,21.60
2022-12-08T23:16:30.439Z,20.80
2022-12-08T23:18:59.674Z,24.20
2022-12-08T23:21:28.336Z,22.60
2022-12-08T23:23:57.238Z,20.70
2022-12-08T23:26:29.099Z,21.30
2022-12-08T23:28:58.995Z,20.40
2022-12-08T23:31:28.195Z,21.80
2022-12-08T23:33:57.055Z,21.70
2022-12-08T23:36:26.881Z,23.30
2022-12-08T23:38:55.934Z,23.00
2022-12-08T23:41:24.497Z,21.70
2022-12-08T23:43:53.295Z,23.90
2022-12-08T23:46:23.612Z,22.50
2022-12-08T23:48:52.278Z,26.80
2022-12-08T23:51:20.853Z,23.00
2022-12-08T23:53:49.507Z,22.80
2022-12-08T23:56:19.317Z,22.90
2022-12-08T23:58:47.933Z,25.90
